Flugplatz Beilngries

Für EDNC sind keine METAR/TAF Berichte vorhanden.
Es werden die Flugwettermeldungen vom Flugplatz Hohenfels Army Air Field in 33 km Entfernung angezeigt.

Bericht für ETIH

vom 17.09. um 13:56 UTC

Wind 8 kt aus 270°

Sichtweite 10 km oder mehr

gering bewölkt in 3300 ft

Temperatur 16.8°C

Taupunkt 13.1°C

Luftfeuchtigkeit 79%

Luftdruck 1018 hPa

ETIH 171356Z AUTO 27008KT 9999 FEW033 17/13 A3006 RMK AO2 SLP172 T01680131
Keine Prognose (TAF) verfügbar.
Impressum